createdAt,value
2018-12-12T00:00:04.853Z,1.50
2018-12-12T00:02:32.295Z,1.30
2018-12-12T00:04:59.727Z,1.20
2018-12-12T00:07:33.181Z,1.10
2018-12-12T00:10:00.616Z,1.00
2018-12-12T00:12:28.070Z,1.10
2018-12-12T00:14:55.535Z,1.10
2018-12-12T00:17:26.351Z,1.10
2018-12-12T00:19:53.790Z,1.20
2018-12-12T00:22:21.252Z,1.30
2018-12-12T00:24:48.696Z,1.30
2018-12-12T00:27:19.484Z,1.30
2018-12-12T00:29:46.930Z,1.10
2018-12-12T00:32:14.376Z,1.00
2018-12-12T00:34:41.804Z,1.20
2018-12-12T00:37:12.866Z,1.00
2018-12-12T00:39:40.313Z,1.00
2018-12-12T00:42:07.785Z,1.20
2018-12-12T00:44:35.220Z,1.30
2018-12-12T00:47:05.834Z,1.40
2018-12-12T00:49:33.259Z,1.40
2018-12-12T00:52:00.714Z,1.30
2018-12-12T00:54:28.488Z,1.00
2018-12-12T00:56:59.681Z,1.00
2018-12-12T00:59:27.117Z,1.10
2018-12-12T01:01:54.616Z,1.20
2018-12-12T01:04:22.040Z,1.30
2018-12-12T01:06:52.690Z,1.30
2018-12-12T01:09:20.161Z,1.40
2018-12-12T01:11:53.353Z,1.40
2018-12-12T01:14:20.795Z,1.40
2018-12-12T01:16:51.847Z,1.50
2018-12-12T01:19:19.278Z,1.50
2018-12-12T01:21:46.747Z,1.50
2018-12-12T01:24:20.259Z,1.20
2018-12-12T01:26:51.526Z,0.90
2018-12-12T01:29:19.028Z,0.80
2018-12-12T01:31:46.474Z,0.80
2018-12-12T01:34:13.903Z,0.80
2018-12-12T01:36:44.630Z,0.80
2018-12-12T01:39:12.063Z,0.80
2018-12-12T01:41:39.503Z,0.70
2018-12-12T01:44:06.943Z,0.80
2018-12-12T01:46:37.304Z,0.70
2018-12-12T01:49:04.793Z,0.60
2018-12-12T01:51:32.273Z,0.60
2018-12-12T01:53:59.801Z,0.60
2018-12-12T01:56:30.349Z,0.60
2018-12-12T01:58:57.788Z,0.70
2018-12-12T02:01:25.222Z,0.80
2018-12-12T02:03:52.654Z,0.70
2018-12-12T02:06:23.320Z,0.60
2018-12-12T02:08:50.742Z,0.60
2018-12-12T02:11:18.170Z,0.60
2018-12-12T02:13:45.639Z,0.60
2018-12-12T02:16:16.764Z,0.60
2018-12-12T02:18:44.526Z,0.60
2018-12-12T02:21:11.966Z,0.70
2018-12-12T02:23:39.404Z,0.80
2018-12-12T02:26:09.795Z,0.80
2018-12-12T02:28:37.258Z,0.80
2018-12-12T02:31:04.855Z,0.90
2018-12-12T02:33:32.287Z,0.90
2018-12-12T02:36:03.633Z,0.80
2018-12-12T02:38:31.064Z,0.80
2018-12-12T02:40:58.502Z,0.80
2018-12-12T02:43:25.936Z,0.90
2018-12-12T02:45:56.421Z,0.90
2018-12-12T02:48:25.078Z,1.00
2018-12-12T02:50:52.520Z,1.00
2018-12-12T02:53:19.953Z,0.60
2018-12-12T02:55:50.557Z,0.50
2018-12-12T02:58:23.758Z,0.60
2018-12-12T03:00:57.381Z,0.60
2018-12-12T03:03:24.811Z,0.50
2018-12-12T03:05:55.587Z,0.50
2018-12-12T03:08:23.099Z,0.60
2018-12-12T03:10:50.542Z,0.60
2018-12-12T03:13:18.055Z,0.40
2018-12-12T03:15:48.528Z,0.50
2018-12-12T03:18:15.955Z,0.60
2018-12-12T03:20:43.512Z,0.70
2018-12-12T03:23:14.493Z,0.80
2018-12-12T03:25:44.970Z,0.50
2018-12-12T03:28:12.405Z,0.30
2018-12-12T03:30:39.849Z,0.10
2018-12-12T03:33:07.284Z,0.20
2018-12-12T03:35:37.922Z,0.30
2018-12-12T03:38:05.360Z,0.50
2018-12-12T03:40:33.426Z,0.40
2018-12-12T03:43:00.891Z,0.20
2018-12-12T03:45:31.904Z,0.00
2018-12-12T03:47:59.342Z,0.00
2018-12-12T03:50:26.791Z,-0.10
2018-12-12T03:52:54.219Z,-0.10
2018-12-12T03:55:27.700Z,-0.30
2018-12-12T03:57:55.269Z,-0.30
2018-12-12T04:00:22.727Z,-0.30
2018-12-12T04:02:50.181Z,-0.40
2018-12-12T04:05:21.063Z,-0.40
2018-12-12T04:07:48.517Z,-0.30
2018-12-12T04:10:15.985Z,-0.40
2018-12-12T04:12:43.447Z,-0.20
2018-12-12T04:15:11.603Z,0.00
2018-12-12T04:17:39.056Z,0.10
2018-12-12T04:20:06.560Z,0.20
2018-12-12T04:22:39.909Z,0.10
2018-12-12T04:25:09.079Z,0.20
2018-12-12T04:27:36.611Z,0.10
2018-12-12T04:30:05.794Z,0.00
2018-12-12T04:32:38.942Z,0.10
2018-12-12T04:35:12.067Z,0.00
2018-12-12T04:37:39.645Z,0.10
2018-12-12T04:40:07.147Z,0.20
2018-12-12T04:42:34.643Z,0.10
2018-12-12T04:45:02.615Z,0.00
2018-12-12T04:47:33.177Z,0.10
2018-12-12T04:50:06.839Z,0.00
2018-12-12T04:52:40.417Z,-0.10
2018-12-12T04:55:08.562Z,-0.10
2018-12-12T04:57:41.799Z,-0.10
2018-12-12T05:00:15.657Z,0.00
2018-12-12T05:02:49.662Z,0.10
2018-12-12T05:05:20.914Z,-0.30
2018-12-12T05:07:54.503Z,-0.10
2018-12-12T05:10:28.344Z,-0.10
2018-12-12T05:13:01.804Z,0.00
2018-12-12T05:15:32.607Z,0.00
2018-12-12T05:18:00.090Z,0.00
2018-12-12T05:20:27.554Z,0.00
2018-12-12T05:22:55.015Z,-0.30
2018-12-12T05:25:25.432Z,-0.30
2018-12-12T05:27:52.904Z,-0.10
2018-12-12T05:30:20.373Z,-0.40
2018-12-12T05:32:47.840Z,-0.50
2018-12-12T05:35:18.265Z,-0.50
2018-12-12T05:37:50.804Z,-0.30
2018-12-12T05:40:15.395Z,-0.40
2018-12-12T05:42:42.971Z,-0.30
2018-12-12T05:45:10.789Z,-0.20
2018-12-12T05:47:38.284Z,-0.20
2018-12-12T05:50:05.800Z,-0.10
2018-12-12T05:52:36.843Z,0.00
2018-12-12T05:55:04.841Z,0.10
2018-12-12T05:57:32.815Z,0.00
2018-12-12T06:00:00.294Z,-0.20
2018-12-12T06:02:33.721Z,-0.10
2018-12-12T06:05:01.466Z,0.00
2018-12-12T06:07:28.881Z,-0.30
2018-12-12T06:09:56.345Z,-0.10
2018-12-12T06:12:23.780Z,-0.10
2018-12-12T06:14:51.230Z,-0.70
2018-12-12T06:17:22.096Z,-0.80
2018-12-12T06:19:51.663Z,-0.80
2018-12-12T06:22:19.439Z,-0.80
2018-12-12T06:24:46.895Z,-0.80
2018-12-12T06:27:17.358Z,-0.90
2018-12-12T06:29:44.830Z,-1.00
2018-12-12T06:32:12.270Z,-1.00
2018-12-12T06:34:41.186Z,-1.10
2018-12-12T06:37:11.759Z,-1.00
2018-12-12T06:39:39.295Z,-1.10
2018-12-12T06:42:06.768Z,-1.00
2018-12-12T06:44:34.266Z,-0.90
2018-12-12T06:47:05.517Z,-0.90
2018-12-12T06:49:33.023Z,-1.00
2018-12-12T06:52:00.543Z,-0.90
2018-12-12T06:54:28.029Z,-0.70
2018-12-12T06:56:58.881Z,-0.80
2018-12-12T06:59:26.319Z,-0.70
2018-12-12T07:01:53.848Z,-0.50
2018-12-12T07:04:21.393Z,-0.40
2018-12-12T07:06:55.028Z,-0.40
2018-12-12T07:09:22.492Z,-0.50
2018-12-12T07:11:50.025Z,-0.30
2018-12-12T07:14:17.480Z,-0.40
2018-12-12T07:16:47.985Z,-0.60
2018-12-12T07:19:15.491Z,-0.50
2018-12-12T07:21:43.383Z,-0.40
2018-12-12T07:24:10.843Z,-0.40
2018-12-12T07:26:41.995Z,-0.40
2018-12-12T07:29:09.563Z,-0.20
2018-12-12T07:31:37.079Z,-0.20
2018-12-12T07:34:04.611Z,-0.40
2018-12-12T07:36:35.786Z,-0.40
2018-12-12T07:39:05.819Z,-0.20
2018-12-12T07:41:33.424Z,-0.30
2018-12-12T07:44:00.858Z,-0.20
2018-12-12T07:46:32.578Z,0.10
2018-12-12T07:49:01.054Z,0.00
2018-12-12T07:51:28.527Z,-0.10
2018-12-12T07:53:56.772Z,-0.10
2018-12-12T07:56:30.768Z,0.10
2018-12-12T07:58:58.205Z,-0.10
2018-12-12T08:01:25.739Z,-0.10
2018-12-12T08:03:53.207Z,0.10
2018-12-12T08:06:23.685Z,0.00
2018-12-12T08:08:51.147Z,-0.10
2018-12-12T08:11:18.615Z,0.10
2018-12-12T08:13:46.070Z,0.30
2018-12-12T08:16:17.618Z,0.30
2018-12-12T08:18:45.069Z,0.40
2018-12-12T08:21:12.529Z,0.30
2018-12-12T08:23:39.994Z,0.40
2018-12-12T08:26:10.559Z,0.10
2018-12-12T08:28:38.013Z,0.20
2018-12-12T08:31:05.472Z,0.40
2018-12-12T08:33:32.925Z,0.30
2018-12-12T08:36:03.748Z,0.10
2018-12-12T08:38:31.210Z,0.30
2018-12-12T08:40:58.648Z,0.50
2018-12-12T08:43:26.107Z,0.60
2018-12-12T08:45:56.821Z,0.80
2018-12-12T08:48:24.268Z,1.00
2018-12-12T08:50:51.733Z,1.10
2018-12-12T08:53:19.179Z,0.60
2018-12-12T08:55:49.899Z,0.80
2018-12-12T08:58:17.352Z,0.90
2018-12-12T09:00:44.849Z,1.00
2018-12-12T09:03:17.545Z,1.10
2018-12-12T09:05:44.844Z,1.20
2018-12-12T09:08:12.274Z,1.30
2018-12-12T09:10:39.813Z,1.30
2018-12-12T09:13:07.264Z,1.30
2018-12-12T09:15:37.736Z,1.10
2018-12-12T09:18:05.177Z,0.60
2018-12-12T09:20:32.636Z,0.80
2018-12-12T09:23:00.153Z,0.90
2018-12-12T09:25:30.624Z,1.10
2018-12-12T09:27:58.083Z,0.80
2018-12-12T09:30:25.582Z,1.10
2018-12-12T09:32:53.039Z,1.30
2018-12-12T09:35:23.699Z,1.40
2018-12-12T09:37:51.145Z,1.50
2018-12-12T09:40:18.648Z,1.50
2018-12-12T09:42:46.098Z,1.30
2018-12-12T09:45:21.722Z,1.50
2018-12-12T09:47:46.419Z,1.20
2018-12-12T09:50:13.882Z,1.10
2018-12-12T09:52:41.317Z,1.40
2018-12-12T09:55:08.796Z,1.40
2018-12-12T09:57:36.229Z,1.60
2018-12-12T10:00:04.662Z,1.50
2018-12-12T10:02:32.102Z,1.20
2018-12-12T10:04:59.558Z,1.20
2018-12-12T10:07:30.206Z,1.00
2018-12-12T10:09:57.671Z,1.30
2018-12-12T10:12:25.114Z,1.20
2018-12-12T10:14:52.563Z,1.20
2018-12-12T10:17:23.418Z,1.00
2018-12-12T10:19:50.883Z,1.20
2018-12-12T10:22:18.358Z,1.40
2018-12-12T10:24:45.795Z,1.70
2018-12-12T10:27:16.493Z,1.80
2018-12-12T10:29:43.923Z,2.00
2018-12-12T10:32:11.444Z,2.10
2018-12-12T10:34:38.909Z,2.10
2018-12-12T10:37:09.693Z,2.20
2018-12-12T10:39:37.155Z,2.30
2018-12-12T10:42:04.714Z,2.40
2018-12-12T10:44:33.388Z,2.40
2018-12-12T10:47:04.547Z,2.40
2018-12-12T10:49:32.020Z,2.30
2018-12-12T10:51:59.522Z,2.30
2018-12-12T10:54:27.014Z,2.30
2018-12-12T10:56:57.372Z,1.50
2018-12-12T10:59:24.802Z,1.20
2018-12-12T11:01:54.288Z,1.60
2018-12-12T11:04:21.784Z,1.80
2018-12-12T11:06:52.848Z,1.50
2018-12-12T11:09:20.288Z,1.20
2018-12-12T11:11:47.817Z,1.50
2018-12-12T11:14:15.274Z,1.50
2018-12-12T11:16:45.913Z,1.40
2018-12-12T11:19:13.363Z,1.40
2018-12-12T11:21:40.831Z,1.40
2018-12-12T11:24:08.279Z,1.60
2018-12-12T11:26:38.715Z,1.70
2018-12-12T11:29:06.157Z,1.70
2018-12-12T11:31:33.614Z,1.40
2018-12-12T11:34:01.110Z,1.30
2018-12-12T11:36:31.704Z,1.60
2018-12-12T11:38:59.179Z,1.90
2018-12-12T11:41:26.651Z,2.10
2018-12-12T11:43:54.092Z,2.30
2018-12-12T11:46:25.119Z,2.60
2018-12-12T11:48:52.821Z,2.90
2018-12-12T11:51:20.344Z,2.90
2018-12-12T11:53:47.805Z,2.80
2018-12-12T11:56:18.519Z,3.00
2018-12-12T11:58:46.068Z,2.90
2018-12-12T12:01:13.543Z,3.10
2018-12-12T12:03:40.992Z,2.90
2018-12-12T12:06:14.287Z,3.00
2018-12-12T12:08:41.736Z,3.30
2018-12-12T12:11:09.199Z,3.70
2018-12-12T12:13:36.707Z,3.90
2018-12-12T12:16:07.198Z,3.80
2018-12-12T12:18:34.655Z,4.00
2018-12-12T12:21:02.110Z,3.40
2018-12-12T12:23:29.680Z,3.70
2018-12-12T12:26:00.439Z,3.80
2018-12-12T12:28:27.916Z,3.90
2018-12-12T12:30:55.973Z,4.10
2018-12-12T12:33:23.422Z,4.20
2018-12-12T12:35:56.736Z,4.30
2018-12-12T12:38:24.186Z,3.80
2018-12-12T12:40:51.635Z,3.70
2018-12-12T12:43:19.091Z,3.60
2018-12-12T12:45:49.708Z,5.30
2018-12-12T12:48:17.285Z,5.60
2018-12-12T12:50:44.791Z,5.30
2018-12-12T12:53:12.272Z,5.00
2018-12-12T12:55:42.933Z,5.60
2018-12-12T12:58:10.391Z,5.20
2018-12-12T13:00:37.831Z,4.90
2018-12-12T13:03:05.314Z,4.50
2018-12-12T13:05:35.987Z,4.30
2018-12-12T13:08:03.520Z,4.30
2018-12-12T13:10:31.204Z,4.10
2018-12-12T13:12:58.815Z,4.00
2018-12-12T13:15:30.262Z,3.90
2018-12-12T13:17:57.711Z,4.00
2018-12-12T13:20:25.154Z,4.20
2018-12-12T13:22:52.850Z,4.20
2018-12-12T13:25:24.095Z,4.40
2018-12-12T13:27:51.603Z,4.20
2018-12-12T13:30:19.019Z,4.20
2018-12-12T13:32:46.524Z,4.10
2018-12-12T13:35:17.264Z,4.10
2018-12-12T13:37:44.717Z,4.10
2018-12-12T13:40:12.160Z,3.80
2018-12-12T13:42:39.671Z,3.70
2018-12-12T13:45:07.123Z,3.80
2018-12-12T13:47:34.644Z,3.70
2018-12-12T13:50:02.215Z,3.90
2018-12-12T13:52:29.660Z,3.90
2018-12-12T13:54:57.106Z,3.90
2018-12-12T13:57:27.968Z,3.70
2018-12-12T13:59:55.427Z,3.70
2018-12-12T14:02:22.858Z,3.60
2018-12-12T14:04:50.319Z,3.60
2018-12-12T14:07:21.082Z,3.60
2018-12-12T14:09:48.543Z,3.80
2018-12-12T14:12:17.476Z,3.70
2018-12-12T14:14:45.756Z,3.60
2018-12-12T14:17:16.178Z,3.60
2018-12-12T14:19:43.662Z,3.70
2018-12-12T14:22:11.156Z,3.60
2018-12-12T14:24:38.635Z,3.60
2018-12-12T14:27:09.040Z,3.50
2018-12-12T14:29:36.496Z,3.50
2018-12-12T14:32:03.953Z,3.50
2018-12-12T14:34:31.397Z,3.50
2018-12-12T14:37:04.776Z,3.50
2018-12-12T14:39:32.231Z,3.40
2018-12-12T14:41:59.660Z,3.50
2018-12-12T14:44:27.111Z,3.40
2018-12-12T14:46:57.994Z,3.30
2018-12-12T14:49:25.554Z,3.30
2018-12-12T14:51:53.001Z,3.20
2018-12-12T14:54:20.459Z,3.30
2018-12-12T14:56:50.815Z,3.30
2018-12-12T14:59:18.274Z,3.30
2018-12-12T15:01:45.696Z,3.30
2018-12-12T15:04:13.167Z,3.30
2018-12-12T15:06:43.753Z,3.30
2018-12-12T15:09:11.208Z,3.30
2018-12-12T15:11:38.642Z,3.30
2018-12-12T15:14:06.101Z,3.30
2018-12-12T15:16:36.731Z,3.20
2018-12-12T15:19:04.259Z,3.20
2018-12-12T15:21:31.674Z,3.20
2018-12-12T15:23:59.135Z,3.20
2018-12-12T15:26:29.602Z,3.10
2018-12-12T15:28:57.097Z,3.20
2018-12-12T15:31:24.567Z,3.30
2018-12-12T15:33:51.992Z,3.30
2018-12-12T15:36:22.494Z,3.10
2018-12-12T15:38:49.957Z,3.00
2018-12-12T15:41:17.416Z,2.90
2018-12-12T15:43:44.909Z,2.90
2018-12-12T15:46:15.335Z,2.80
2018-12-12T15:48:42.775Z,2.60
2018-12-12T15:51:10.239Z,2.60
2018-12-12T15:53:37.692Z,2.40
2018-12-12T15:56:08.470Z,2.50
2018-12-12T15:58:35.905Z,2.50
2018-12-12T16:01:03.443Z,2.50
2018-12-12T16:03:30.871Z,2.50
2018-12-12T16:06:01.606Z,2.40
2018-12-12T16:08:29.018Z,2.30
2018-12-12T16:10:56.480Z,2.30
2018-12-12T16:13:23.931Z,2.30
2018-12-12T16:15:55.199Z,2.30
2018-12-12T16:18:22.627Z,2.30
2018-12-12T16:20:50.087Z,2.30
2018-12-12T16:23:17.536Z,2.30
2018-12-12T16:25:48.237Z,2.10
2018-12-12T16:28:15.670Z,2.10
2018-12-12T16:30:43.121Z,2.10
2018-12-12T16:33:10.572Z,2.10
2018-12-12T16:35:41.492Z,2.00
2018-12-12T16:38:08.937Z,2.00
2018-12-12T16:40:36.406Z,2.00
2018-12-12T16:43:03.889Z,2.00
2018-12-12T16:45:34.443Z,2.10
2018-12-12T16:48:01.876Z,1.90
2018-12-12T16:50:29.367Z,1.80
2018-12-12T16:52:58.044Z,1.80
2018-12-12T16:55:29.453Z,1.90
2018-12-12T16:57:57.008Z,1.70
2018-12-12T17:00:25.167Z,1.70
2018-12-12T17:02:54.414Z,1.80
2018-12-12T17:05:25.574Z,1.80
2018-12-12T17:07:53.003Z,1.80
2018-12-12T17:10:20.893Z,1.80
2018-12-12T17:12:48.401Z,1.90
2018-12-12T17:15:22.482Z,1.90
2018-12-12T17:17:49.919Z,1.80
2018-12-12T17:20:17.895Z,1.90
2018-12-12T17:22:45.308Z,2.10
2018-12-12T17:25:17.296Z,2.20
2018-12-12T17:27:44.766Z,2.10
2018-12-12T17:30:13.203Z,2.10
2018-12-12T17:32:41.485Z,2.00
2018-12-12T17:35:09.187Z,2.10
2018-12-12T17:37:36.720Z,2.10
2018-12-12T17:40:04.672Z,2.10
2018-12-12T17:42:32.585Z,2.10
2018-12-12T17:45:00.052Z,2.30
2018-12-12T17:47:34.258Z,2.20
2018-12-12T17:50:02.230Z,2.20
2018-12-12T17:52:29.647Z,2.30
2018-12-12T17:54:57.102Z,2.10
2018-12-12T17:57:28.259Z,2.00
2018-12-12T17:59:55.786Z,1.90
2018-12-12T18:02:23.239Z,2.00
2018-12-12T18:04:51.358Z,2.00
2018-12-12T18:07:22.227Z,2.00
2018-12-12T18:09:50.551Z,2.10
2018-12-12T18:12:17.986Z,2.00
2018-12-12T18:14:46.345Z,2.00
2018-12-12T18:17:17.421Z,2.10
2018-12-12T18:19:44.856Z,2.10
2018-12-12T18:22:12.311Z,2.00
2018-12-12T18:24:39.747Z,2.10
2018-12-12T18:27:10.461Z,2.20
2018-12-12T18:29:37.885Z,2.10
2018-12-12T18:32:05.390Z,2.10
2018-12-12T18:34:32.832Z,2.10
2018-12-12T18:37:03.512Z,2.00
2018-12-12T18:39:30.997Z,2.00
2018-12-12T18:41:58.451Z,2.10
2018-12-12T18:44:26.443Z,2.10
2018-12-12T18:46:57.323Z,2.10
2018-12-12T18:49:24.792Z,2.10
2018-12-12T18:51:52.243Z,2.10
2018-12-12T18:54:19.683Z,2.10
2018-12-12T18:56:50.515Z,2.20
2018-12-12T18:59:17.971Z,2.30
2018-12-12T19:01:45.431Z,2.20
2018-12-12T19:04:12.882Z,2.20
2018-12-12T19:06:45.844Z,2.20
2018-12-12T19:09:13.291Z,2.20
2018-12-12T19:11:44.350Z,2.20
2018-12-12T19:14:10.236Z,2.20
2018-12-12T19:16:41.297Z,2.10
2018-12-12T19:19:08.815Z,2.20
2018-12-12T19:21:36.289Z,2.20
2018-12-12T19:24:03.778Z,2.20
2018-12-12T19:26:34.718Z,2.20
2018-12-12T19:29:02.206Z,2.20
2018-12-12T19:31:38.131Z,2.20
2018-12-12T19:34:06.695Z,2.20
2018-12-12T19:36:39.863Z,2.20
2018-12-12T19:39:07.656Z,2.10
2018-12-12T19:41:42.232Z,2.10
2018-12-12T19:44:09.679Z,2.10
2018-12-12T19:46:44.411Z,2.10
2018-12-12T19:49:13.636Z,2.10
2018-12-12T19:51:41.223Z,2.10
2018-12-12T19:54:08.664Z,2.10
2018-12-12T19:56:39.538Z,2.10
2018-12-12T19:59:06.975Z,2.10
2018-12-12T20:01:34.422Z,2.10
2018-12-12T20:04:01.857Z,2.10
2018-12-12T20:06:32.594Z,2.10
2018-12-12T20:09:00.894Z,2.10
2018-12-12T20:11:31.916Z,2.10
2018-12-12T20:13:59.359Z,2.00
2018-12-12T20:16:30.235Z,2.00
2018-12-12T20:18:57.794Z,2.10
2018-12-12T20:21:25.211Z,2.10
2018-12-12T20:23:52.778Z,2.10
2018-12-12T20:26:23.414Z,2.00
2018-12-12T20:28:50.890Z,2.10
2018-12-12T20:31:19.322Z,2.10
2018-12-12T20:33:46.750Z,2.10
2018-12-12T20:36:17.636Z,2.10
2018-12-12T20:38:45.201Z,1.90
2018-12-12T20:41:12.679Z,1.90
2018-12-12T20:43:40.134Z,1.90
2018-12-12T20:46:11.311Z,1.90
2018-12-12T20:48:38.805Z,1.80
2018-12-12T20:51:06.298Z,1.90
2018-12-12T20:53:33.735Z,1.90
2018-12-12T20:56:07.430Z,1.80
2018-12-12T20:58:34.860Z,1.70
2018-12-12T21:01:02.306Z,1.70
2018-12-12T21:03:29.789Z,1.60
2018-12-12T21:06:00.567Z,1.50
2018-12-12T21:08:28.195Z,1.50
2018-12-12T21:10:55.655Z,1.50
2018-12-12T21:13:23.128Z,1.50
2018-12-12T21:15:53.605Z,1.40
2018-12-12T21:18:21.979Z,1.40
2018-12-12T21:20:49.470Z,1.30
2018-12-12T21:23:16.893Z,1.20
2018-12-12T21:25:47.890Z,1.10
2018-12-12T21:28:15.484Z,1.20
2018-12-12T21:30:42.961Z,1.20
2018-12-12T21:33:10.407Z,1.20
2018-12-12T21:35:41.655Z,1.20
2018-12-12T21:38:09.165Z,1.20
2018-12-12T21:40:36.604Z,1.10
2018-12-12T21:43:04.078Z,1.10
2018-12-12T21:45:34.711Z,1.10
2018-12-12T21:48:02.203Z,1.10
2018-12-12T21:50:39.315Z,1.00
2018-12-12T21:53:06.813Z,1.00
2018-12-12T21:55:37.479Z,0.90
2018-12-12T21:58:04.946Z,0.90
2018-12-12T22:00:32.459Z,0.90
2018-12-12T22:02:59.923Z,0.90
2018-12-12T22:05:30.671Z,0.90
2018-12-12T22:07:58.195Z,0.80
2018-12-12T22:10:25.655Z,0.70
2018-12-12T22:12:53.117Z,0.70
2018-12-12T22:15:24.503Z,0.70
2018-12-12T22:17:52.084Z,0.70
2018-12-12T22:20:19.518Z,0.70
2018-12-12T22:22:47.132Z,0.70
2018-12-12T22:25:17.460Z,0.70
2018-12-12T22:27:44.943Z,0.70
2018-12-12T22:30:12.442Z,0.70
2018-12-12T22:32:39.906Z,0.70
2018-12-12T22:35:08.119Z,0.70
2018-12-12T22:37:35.573Z,0.70
2018-12-12T22:40:03.695Z,0.70
2018-12-12T22:42:31.141Z,0.80
2018-12-12T22:44:58.596Z,0.70
2018-12-12T22:47:29.764Z,0.60
2018-12-12T22:49:58.088Z,0.60
2018-12-12T22:52:25.579Z,0.60
2018-12-12T22:54:53.019Z,0.60
2018-12-12T22:57:26.246Z,0.50
2018-12-12T22:59:53.703Z,0.50
2018-12-12T23:02:21.162Z,0.50
2018-12-12T23:04:48.594Z,0.50
2018-12-12T23:07:19.351Z,0.40
2018-12-12T23:09:47.689Z,0.40
2018-12-12T23:12:15.152Z,0.40
2018-12-12T23:14:42.627Z,0.40
2018-12-12T23:17:13.757Z,0.40
2018-12-12T23:19:42.025Z,0.40
2018-12-12T23:22:09.489Z,0.30
2018-12-12T23:24:37.023Z,0.30
2018-12-12T23:27:07.721Z,0.30
2018-12-12T23:29:35.185Z,0.30
2018-12-12T23:32:02.639Z,0.20
2018-12-12T23:34:30.082Z,0.20
2018-12-12T23:37:00.764Z,0.10
2018-12-12T23:39:28.215Z,0.10
2018-12-12T23:41:55.639Z,0.10
2018-12-12T23:44:23.070Z,0.00
2018-12-12T23:46:53.832Z,0.10
2018-12-12T23:49:21.265Z,-0.10
2018-12-12T23:51:48.715Z,-0.10
2018-12-12T23:54:16.165Z,-0.10
2018-12-12T23:56:46.672Z,-0.10
2018-12-12T23:59:14.107Z,-0.10
